Terminal Aerodrome Forecast
Issued by NWS

Current Version | Previous Version | Text Only | Print | Product List | Glossary On
Versions: 1 2 3 4 5 6 7 8 9 10 11 12 13 14
000
FTUS44 KMAF 010600 AAA
TAFINK
TAF AMD
KINK 010644Z 0107/0206 21004KT 3SM BR OVC004
      TEMPO 0107/0111 1/4SM FG VV001
     FM011700 01014KT P6SM OVC025
     FM012100 03009KT P6SM BKN035=

USA.gov is the U.S. government's official web portal to all federal, state and local government web resources and services.